Sea Imp Xi — CFFC — position and weather

sailwx.info

Track history (hours):
 
Tides and Currents Weather Stations Pressure Air Temp Water Temp Dewpoint Dewpoint Depression Visibility Wind Speed Wind Dir Waves Ship Positions

Sea Imp Xi

Last reported at 2017-Oct-20 18:00 UTC. Time now 2017-Oct-20 18:28 UTC.
Position N 49°44' W 124°23'.

Length 16 m; draft 3.6 m.

Type: Tug. MMSI: 316034963.

Date/timePositionNaut miles runAvg speedWind from/ knotsBaromVisibWave heightAir tempDewpointWater temp
2017-Oct-20 18:00N 49°44' W 124°23'4 7.7
2017-Oct-20 17:31N 49°46' W 124°27'4 7.8
2017-Oct-20 17:00N 49°49' W 124°32'4 7.1
2017-Oct-20 16:30N 49°52' W 124°33'0 0.5
2017-Oct-20 16:00N 49°52' W 124°33'0 0.5
2017-Oct-20 15:30N 49°52' W 124°34'0 0.5
2017-Oct-20 15:00N 49°52' W 124°33'1 0.6
2017-Oct-20 14:00N 49°52' W 124°34'1 1.3
2017-Oct-20 13:30N 49°52' W 124°33'1 2.8
2017-Oct-20 13:00N 49°51' W 124°33'3 5.1
2017-Oct-20 12:30N 49°48' W 124°33'3 5.1
2017-Oct-20 12:00N 49°47' W 124°30'3 6.3
2017-Oct-20 11:31N 49°45' W 124°25'3 6.0
2017-Oct-20 11:00N 49°44' W 124°21'3 5.7
2017-Oct-20 10:31N 49°42' W 124°18'3 6.1
2017-Oct-20 10:00N 49°39' W 124°16'3 6.2
2017-Oct-20 09:30N 49°37' W 124°12'3 6.1
2017-Oct-20 09:00N 49°35' W 124°09'3 6.0
2017-Oct-20 08:30N 49°32' W 124°06'3 6.8
2017-Oct-20 08:01N 49°30' W 124°03'4 8.4
2017-Oct-20 07:31N 49°27' W 123°58'4 8.6
2017-Oct-20 07:00N 49°24' W 123°53'4 9.0
2017-Oct-20 06:31N 49°22' W 123°46'4 8.5
2017-Oct-20 06:00N 49°21' W 123°40'4 8.5
2017-Oct-20 05:30N 49°20' W 123°34'4 9.0
2017-Oct-20 05:00N 49°18' W 123°28'4 8.6
2017-Oct-20 04:30N 49°17' W 123°21'1 1.6
2017-Oct-20 04:00N 49°16' W 123°20'4 8.0
2017-Oct-20 03:31N 49°18' W 123°26'4 7.4
2017-Oct-20 03:01N 49°20' W 123°31'4 8.2
2017-Oct-20 02:30N 49°21' W 123°37'4 8.5
2017-Oct-20 02:00N 49°23' W 123°43'4 7.7
2017-Oct-20 01:31N 49°24' W 123°48'4 7.4
2017-Oct-20 01:00N 49°26' W 123°53'4 7.1
2017-Oct-20 00:31N 49°27' W 123°59'3 6.8
2017-Oct-20 00:00N 49°29' W 124°02'4 8.0
2017-Oct-19 23:30N 49°33' W 124°05'4 7.4
2017-Oct-19 23:00N 49°36' W 124°08'4 7.3
2017-Oct-19 22:30N 49°39' W 124°12'4 7.7
2017-Oct-19 22:00N 49°41' W 124°16'4 7.9
2017-Oct-19 21:30N 49°43' W 124°21'4 7.7
2017-Oct-19 21:01N 49°45' W 124°26'4 7.5
2017-Oct-19 20:30N 49°47' W 124°31'4 7.2
2017-Oct-19 20:00N 49°51' W 124°33'1 2.8
2017-Oct-19 19:30N 49°52' W 124°33'0 0.0
2017-Oct-19 19:00N 49°52' W 124°33'0 0.0
2017-Oct-19 18:31N 49°52' W 124°33'0 0.0
2017-Oct-19 18:00N 49°52' W 124°33'0 0.0
2017-Oct-19 17:30N 49°52' W 124°33'0 0.0
2017-Oct-19 17:00N 49°52' W 124°33'0 0.0
2017-Oct-19 16:29N 49°52' W 124°33'0 0.0
2017-Oct-19 16:01N 49°52' W 124°33'0 0.0
2017-Oct-19 15:29N 49°52' W 124°33'0 0.0
2017-Oct-19 15:00N 49°52' W 124°33'0 0.0
2017-Oct-19 14:31N 49°52' W 124°33'0 0.0
2017-Oct-19 14:00N 49°52' W 124°33'0 0.8
2017-Oct-19 13:31N 49°52' W 124°33'4 7.2
2017-Oct-19 13:00N 49°48' W 124°32'4 8.9
2017-Oct-19 12:31N 49°46' W 124°27'4 8.9
2017-Oct-19 12:01N 49°43' W 124°21'5 9.1
2017-Oct-19 11:30N 49°40' W 124°16'5 9.0
2017-Oct-19 11:01N 49°36' W 124°12'5 9.6
2017-Oct-19 10:31N 49°33' W 124°07'5 9.3
2017-Oct-19 10:00N 49°29' W 124°02'5 9.5
2017-Oct-19 09:31N 49°26' W 123°56'5 9.0
2017-Oct-19 09:00N 49°25' W 123°50'4 8.8
2017-Oct-19 08:30N 49°23' W 123°44'4 8.7
2017-Oct-19 08:00N 49°21' W 123°38'4 8.7
2017-Oct-19 07:30N 49°20' W 123°32'4 8.6
2017-Oct-19 07:00N 49°18' W 123°25'4 8.2
2017-Oct-19 06:31N 49°16' W 123°20'5 9.1
2017-Oct-19 06:00N 49°14' W 123°14'5 9.6
2017-Oct-19 05:30N 49°12' W 123°07'2 4.0
2017-Oct-19 05:00N 49°12' W 123°04'0 0.0
2017-Oct-19 04:30N 49°12' W 123°04'0 0.1
2017-Oct-19 04:00N 49°12' W 123°04'0 0.0
2017-Oct-19 03:30N 49°12' W 123°04'1 2.2
2017-Oct-19 03:00N 49°12' W 123°06'3 7.1
2017-Oct-19 02:31N 49°13' W 123°11'4 8.0
2017-Oct-19 02:00N 49°15' W 123°16'4 7.3
2017-Oct-19 01:30N 49°17' W 123°21'4 8.7
2017-Oct-19 01:00N 49°19' W 123°27'4 8.5
2017-Oct-19 00:31N 49°21' W 123°32'4 8.1
2017-Oct-19 00:00N 49°23' W 123°38'4 7.9
2017-Oct-18 23:30N 49°25' W 123°43'4 7.6
2017-Oct-18 23:01N 49°26' W 123°48'3 6.8
2017-Oct-18 22:31N 49°28' W 123°53'3 6.4
2017-Oct-18 22:01N 49°30' W 123°57'3 6.2
2017-Oct-18 21:30N 49°32' W 124°00'3 6.9
2017-Oct-18 21:00N 49°35' W 124°04'3 6.3
2017-Oct-18 20:30N 49°36' W 124°08'3 5.7
2017-Oct-18 20:01N 49°38' W 124°11'3 5.4
2017-Oct-18 19:30N 49°40' W 124°14'3 5.6
2017-Oct-18 19:00N 49°42' W 124°18'3 6.0
2017-Oct-18 18:30N 49°43' W 124°21'3 6.7
2017-Oct-18 18:01N 49°45' W 124°26'3 6.0
2017-Oct-18 17:30N 49°47' W 124°30'3 5.6
2017-Oct-18 17:00N 49°49' W 124°33'3 6.4
2017-Oct-18 16:30N 49°52' W 124°33'0 0.2
2017-Oct-18 15:54N 49°52' W 124°33'0 0.0
2017-Oct-18 14:45N 49°52' W 124°33'0 0.0
2017-Oct-18 13:39N 49°52' W 124°33'0 0.0
2017-Oct-18 13:24N 49°52' W 124°33'0 0.0
2017-Oct-18 12:57N 49°52' W 124°33'0 0.1
2017-Oct-18 12:28N 49°52' W 124°33'2 4.9
2017-Oct-18 12:00N 49°50' W 124°33'4 8.1
2017-Oct-18 11:30N 49°46' W 124°29'5 9.2
2017-Oct-18 11:00N 49°44' W 124°23'5 9.1
2017-Oct-18 10:30N 49°41' W 124°18'5 9.1
2017-Oct-18 10:00N 49°38' W 124°14'4 8.9
2017-Oct-18 09:30N 49°34' W 124°09'4 8.9
2017-Oct-18 09:00N 49°31' W 124°05'4 8.8
2017-Oct-18 08:30N 49°28' W 123°60'5 9.2
2017-Oct-18 08:00N 49°26' W 123°53'5 9.2
2017-Oct-18 07:30N 49°25' W 123°47'4 8.6
2017-Oct-18 07:00N 49°23' W 123°40'4 8.7
2017-Oct-18 06:30N 49°22' W 123°34'4 8.6
2017-Oct-18 06:00N 49°20' W 123°28'4 8.5
2017-Oct-18 05:30N 49°17' W 123°23'4 8.8
2017-Oct-18 05:00N 49°15' W 123°17'510.8
2017-Oct-18 04:30N 49°13' W 123°10'4 7.5
2017-Oct-18 04:00N 49°12' W 123°04'0 0.1
2017-Oct-18 03:30N 49°12' W 123°04'1 2.3
2017-Oct-18 03:00N 49°12' W 123°02'2 3.3
2017-Oct-18 02:30N 49°11' W 122°60'2 4.0
2017-Oct-18 01:56N 49°12' W 122°56'2 4.3
2017-Oct-18 01:30N 49°12' W 122°54'1 2.7
2017-Oct-18 01:00N 49°13' W 122°52'2 3.6
2017-Oct-18 00:30N 49°13' W 122°49'2 4.0
2017-Oct-17 23:59N 49°13' W 122°46'2 3.7
2017-Oct-17 23:30N 49°12' W 122°44'2 3.6
2017-Oct-17 23:00N 49°11' W 122°41'0 0.6
2017-Oct-17 22:28N 49°11' W 122°41'1 1.4
2017-Oct-17 22:00N 49°11' W 122°42'0 0.3
2017-Oct-17 21:30N 49°11' W 122°41'0 0.8
2017-Oct-17 20:56N 49°11' W 122°41'1 1.6
2017-Oct-17 20:18N 49°12' W 122°40'0 0.0
2017-Oct-17 20:00N 49°12' W 122°40'0 0.1
2017-Oct-17 19:24N 49°12' W 122°40'1 1.5
2017-Oct-17 18:45N 49°11' W 122°41'0 0.0
2017-Oct-17 18:27N 49°11' W 122°41'0 0.0
2017-Oct-17 18:00N 49°11' W 122°41'0 0.3
2017-Oct-17 17:30N 49°11' W 122°41'3 5.0
2017-Oct-17 17:00N 49°13' W 122°44'4 7.0
2017-Oct-17 16:29N 49°13' W 122°50'3 6.0
2017-Oct-17 15:54N 49°12' W 122°55'2 6.2
2017-Oct-17 15:30N 49°11' W 122°58'3 6.6
2017-Oct-17 15:00N 49°12' W 123°03'3 6.7
2017-Oct-17 14:30N 49°12' W 123°08'4 7.3
2017-Oct-17 14:00N 49°13' W 123°13'4 7.1
2017-Oct-17 13:30N 49°16' W 123°17'4 7.3
2017-Oct-17 13:00N 49°15' W 123°23'1 1.5
2017-Oct-17 12:26N 49°15' W 123°21'1 1.3
2017-Oct-17 11:59N 49°16' W 123°22'1 1.6
2017-Oct-17 11:29N 49°16' W 123°23'1 1.8
2017-Oct-17 10:59N 49°15' W 123°22'1 1.4
2017-Oct-17 10:29N 49°15' W 123°21'2 3.3
2017-Oct-17 10:01N 49°16' W 123°19'2 4.7
2017-Oct-17 09:30N 49°15' W 123°16'0 0.3
2017-Oct-17 09:00N 49°15' W 123°15'3 6.2
2017-Oct-17 08:30N 49°16' W 123°20'2 3.3
2017-Oct-17 07:59N 49°15' W 123°23'0 0.5
2017-Oct-17 07:28N 49°15' W 123°22'0 0.7
2017-Oct-17 07:00N 49°15' W 123°22'0 0.7
2017-Oct-17 06:28N 49°15' W 123°22'2 4.7
2017-Oct-17 06:00N 49°16' W 123°19'3 5.1
2017-Oct-17 05:30N 49°15' W 123°15'0 0.0
2017-Oct-17 05:00N 49°15' W 123°15'1 1.0
2017-Oct-17 04:30N 49°14' W 123°15'2 4.9
2017-Oct-17 04:00N 49°13' W 123°11'3 5.4
2017-Oct-17 03:31N 49°12' W 123°08'3 5.0
2017-Oct-17 03:00N 49°12' W 123°04'3 5.2
2017-Oct-17 02:30N 49°12' W 123°00'2 3.9
2017-Oct-17 01:59N 49°12' W 122°57'2 3.1
2017-Oct-17 01:30N 49°12' W 122°55'1 2.9
2017-Oct-17 01:00N 49°13' W 122°53'2 3.4
2017-Oct-17 00:30N 49°13' W 122°51'2 3.2
2017-Oct-17 00:00N 49°13' W 122°48'2 3.2
2017-Oct-16 23:30N 49°13' W 122°46'2 3.4
2017-Oct-16 22:59N 49°12' W 122°44'2 3.1
2017-Oct-16 22:29N 49°11' W 122°42'1 1.3
2017-Oct-16 22:00N 49°11' W 122°41'0 0.1
2017-Oct-16 21:30N 49°11' W 122°41'0 0.1
2017-Oct-16 21:00N 49°11' W 122°41'0 0.0
2017-Oct-16 20:30N 49°11' W 122°41'0 0.0
2017-Oct-16 20:00N 49°11' W 122°41'0 0.0
2017-Oct-16 19:30N 49°11' W 122°41'0 0.0
2017-Oct-16 19:00N 49°11' W 122°41'0 0.0
2017-Oct-16 18:30N 49°11' W 122°41'0 0.0
2017-Oct-16 18:00N 49°11' W 122°41'0 0.0
2017-Oct-16 17:30N 49°11' W 122°41'0 0.4
2017-Oct-16 17:00N 49°11' W 122°41'0 0.4
2017-Oct-16 16:30N 49°11' W 122°41'0 0.0
2017-Oct-16 15:17N 49°11' W 122°41'0 0.0
2017-Oct-16 15:00N 49°11' W 122°41'0 0.0
2017-Oct-16 13:42N 49°11' W 122°41'0 0.0
2017-Oct-16 13:15N 49°11' W 122°41'0 0.0
2017-Oct-16 13:00N 49°11' W 122°41'2 3.0
2017-Oct-16 12:30N 49°11' W 122°43'2 4.4
2017-Oct-16 12:00N 49°13' W 122°45'3 5.9
2017-Oct-16 11:30N 49°13' W 122°50'3 6.1
2017-Oct-16 11:00N 49°12' W 122°54'3 6.1
2017-Oct-16 10:30N 49°11' W 122°58'3 6.5
2017-Oct-16 10:00N 49°12' W 123°03'3 6.3
2017-Oct-16 09:30N 49°12' W 123°08'3 5.5
2017-Oct-16 09:00N 49°13' W 123°11'3 5.9
2017-Oct-16 08:30N 49°15' W 123°15'2 4.2
2017-Oct-16 08:00N 49°16' W 123°18'2 4.5
2017-Oct-16 07:30N 49°15' W 123°22'1 2.0
2017-Oct-16 07:00N 49°16' W 123°22'1 1.2
2017-Oct-16 06:30N 49°15' W 123°23'1 1.8
2017-Oct-16 06:00N 49°15' W 123°21'1 2.1
2017-Oct-16 05:30N 49°16' W 123°23'1 1.2
2017-Oct-16 05:00N 49°15' W 123°22'2 3.4
2017-Oct-16 04:30N 49°15' W 123°19'3 5.5
2017-Oct-16 04:00N 49°15' W 123°15'3 6.2
2017-Oct-16 03:30N 49°13' W 123°11'3 5.8
2017-Oct-16 03:00N 49°12' W 123°07'3 6.2
2017-Oct-16 02:30N 49°12' W 123°02'3 5.4
2017-Oct-16 02:00N 49°11' W 122°58'2 4.4
2017-Oct-16 01:31N 49°12' W 122°55'2 4.0
2017-Oct-16 01:00N 49°13' W 122°53'1 2.9
2017-Oct-16 00:30N 49°13' W 122°50'2 3.1
2017-Oct-16 00:00N 49°13' W 122°48'1 3.0
2017-Oct-15 23:30N 49°13' W 122°46'2 3.0
2017-Oct-15 23:00N 49°12' W 122°44'2 3.1
2017-Oct-15 22:29N 49°11' W 122°42'1 1.9
2017-Oct-15 22:00N 49°11' W 122°41'0 0.1
2017-Oct-15 21:30N 49°11' W 122°41'0 0.0
2017-Oct-15 21:00N 49°11' W 122°41'0 0.0
2017-Oct-15 20:30N 49°11' W 122°41'1 1.2
2017-Oct-15 19:54N 49°11' W 122°42'1 1.4
2017-Oct-15 19:23N 49°11' W 122°41'0 0.0
2017-Oct-15 18:59N 49°11' W 122°41'0 0.0
2017-Oct-15 18:29N 49°11' W 122°41'0 0.0
2017-Oct-15 17:56N 49°11' W 122°41'0 0.8
2017-Oct-15 17:30N 49°11' W 122°41'0 0.1
2017-Oct-15 14:51N 49°11' W 122°41'3 3.1
2017-Oct-15 14:00N 49°13' W 122°44'2 5.0
2017-Oct-15 13:31N 49°13' W 122°48'2 4.6
2017-Oct-15 13:00N 49°13' W 122°51'3 5.2
2017-Oct-15 12:29N 49°12' W 122°55'3 5.3
2017-Oct-15 12:01N 49°11' W 122°59'3 5.9
2017-Oct-15 11:30N 49°12' W 123°03'3 6.0
2017-Oct-15 11:00N 49°12' W 123°07'3 5.3
2017-Oct-15 10:31N 49°13' W 123°11'3 6.5
2017-Oct-15 10:01N 49°15' W 123°15'2 4.5
2017-Oct-15 09:31N 49°15' W 123°18'3 5.3
2017-Oct-15 08:58N 49°15' W 123°23'1 1.8
2017-Oct-15 08:30N 49°16' W 123°22'1 1.8
2017-Oct-15 08:00N 49°15' W 123°22'1 1.4
2017-Oct-15 07:30N 49°15' W 123°22'1 1.9
2017-Oct-15 06:58N 49°16' W 123°21'1 1.4
2017-Oct-15 06:30N 49°16' W 123°22'1 1.3
2017-Oct-15 06:01N 49°15' W 123°23'1 1.9
2017-Oct-15 05:30N 49°15' W 123°22'2 4.9
2017-Oct-15 05:00N 49°16' W 123°18'2 4.9
2017-Oct-15 04:30N 49°14' W 123°15'2 4.4
2017-Oct-15 04:00N 49°13' W 123°12'2 4.7
2017-Oct-15 03:30N 49°12' W 123°09'3 5.0
2017-Oct-15 03:00N 49°12' W 123°05'3 5.5
2017-Oct-15 02:30N 49°12' W 123°01'2 4.6
2017-Oct-15 02:00N 49°12' W 122°57'2 4.3
2017-Oct-15 01:30N 49°12' W 122°54'2 4.9
2017-Oct-15 01:00N 49°13' W 122°50'2 4.4
2017-Oct-15 00:30N 49°13' W 122°47'2 4.3
2017-Oct-15 00:00N 49°13' W 122°44'2 3.9
2017-Oct-14 23:30N 49°11' W 122°42'1 2.1
2017-Oct-14 23:00N 49°11' W 122°41'1 1.6
2017-Oct-14 22:30N 49°11' W 122°42'1 1.5
2017-Oct-14 22:00N 49°11' W 122°41'0 0.0
2017-Oct-14 21:30N 49°11' W 122°41'0 0.0
2017-Oct-14 21:00N 49°11' W 122°41'0 0.0
2017-Oct-14 20:31N 49°11' W 122°41'0 0.0
2017-Oct-14 20:00N 49°11' W 122°41'0 0.0
2017-Oct-14 19:30N 49°11' W 122°41'0 0.0
2017-Oct-14 19:00N 49°11' W 122°41'0 0.0
2017-Oct-14 18:30N 49°11' W 122°41'0 0.1
2017-Oct-14 18:00N 49°11' W 122°41'0 0.4
2017-Oct-14 17:30N 49°11' W 122°41'0 0.2
2017-Oct-14 17:00N 49°11' W 122°41'0 0.0
2017-Oct-14 16:30N 49°11' W 122°41'0 0.0
2017-Oct-14 16:00N 49°11' W 122°41'0 0.0
2017-Oct-14 15:30N 49°11' W 122°41'1 2.1
2017-Oct-14 15:00N 49°11' W 122°42'2 4.8
2017-Oct-14 14:30N 49°13' W 122°45'2 4.8
2017-Oct-14 14:00N 49°13' W 122°48'2 4.4
2017-Oct-14 13:30N 49°13' W 122°52'2 4.7
2017-Oct-14 12:59N 49°12' W 122°55'3 5.7
2017-Oct-14 12:30N 49°11' W 122°59'3 5.8
2017-Oct-14 12:00N 49°12' W 123°03'3 5.4
2017-Oct-14 11:30N 49°12' W 123°07'2 4.4
2017-Oct-14 11:00N 49°13' W 123°10'3 5.1
2017-Oct-14 10:30N 49°14' W 123°13'3 5.4
2017-Oct-14 10:00N 49°15' W 123°17'2 4.9
2017-Oct-14 09:31N 49°16' W 123°20'1 2.1
2017-Oct-14 09:00N 49°15' W 123°22'0 0.5
2017-Oct-14 08:30N 49°16' W 123°22'0 0.6
2017-Oct-14 08:00N 49°15' W 123°22'1 1.4
2017-Oct-14 07:30N 49°16' W 123°23'1 1.9
2017-Oct-14 07:00N 49°15' W 123°22'0 0.8
2017-Oct-14 06:30N 49°15' W 123°22'1 1.4
2017-Oct-14 06:00N 49°16' W 123°23'0 0.7
2017-Oct-14 05:30N 49°15' W 123°24'1 2.3
2017-Oct-14 05:01N 49°15' W 123°22'3 5.1
2017-Oct-14 04:30N 49°16' W 123°18'3 5.4
2017-Oct-14 04:00N 49°14' W 123°14'3 5.4
2017-Oct-14 03:30N 49°13' W 123°11'3 5.0
2017-Oct-14 03:00N 49°12' W 123°07'3 5.8
2017-Oct-14 02:30N 49°12' W 123°03'3 5.7
2017-Oct-14 02:00N 49°11' W 122°59'2 4.5
2017-Oct-14 01:28N 49°12' W 122°55'3 4.7
2017-Oct-14 00:52N 49°13' W 122°52'3 5.5
2017-Oct-14 00:19N 49°13' W 122°47'2 5.4
2017-Oct-13 23:59N 49°13' W 122°44'3 4.4
2017-Oct-13 23:24N 49°11' W 122°41'1 1.6
2017-Oct-13 23:01N 49°11' W 122°41'0 0.9
2017-Oct-13 22:30N 49°11' W 122°41'0 0.8
2017-Oct-13 21:59N 49°11' W 122°41'0 0.0
2017-Oct-13 21:16N 49°11' W 122°41'0 0.0
2017-Oct-13 21:00N 49°11' W 122°41'0 0.0
2017-Oct-13 20:30N 49°11' W 122°41'0 0.0
2017-Oct-13 20:00N 49°11' W 122°41'0 0.8
2017-Oct-13 19:30N 49°11' W 122°41'0 0.8
2017-Oct-13 19:00N 49°11' W 122°41'0 0.1
2017-Oct-13 18:30N 49°11' W 122°41'0 0.0
2017-Oct-13 18:00N 49°11' W 122°41'0 0.3
2017-Oct-13 17:31N 49°11' W 122°41'0 0.4
2017-Oct-13 17:00N 49°11' W 122°41'0 0.4
2017-Oct-13 16:30N 49°11' W 122°41'0 0.0
2017-Oct-13 15:57N 49°11' W 122°41'0 0.1
2017-Oct-13 15:30N 49°11' W 122°41'0 0.1
2017-Oct-13 15:00N 49°11' W 122°41'0 0.1
2017-Oct-13 14:30N 49°11' W 122°41'1 1.8
2017-Oct-13 14:00N 49°11' W 122°42'2 3.8
2017-Oct-13 13:31N 49°13' W 122°44'2 3.8
2017-Oct-13 13:00N 49°13' W 122°47'2 4.0
2017-Oct-13 12:30N 49°13' W 122°50'2 3.9
2017-Oct-13 12:00N 49°13' W 122°53'2 4.5
2017-Oct-13 11:30N 49°12' W 122°56'2 3.9
2017-Oct-13 11:00N 49°11' W 122°58'2 4.8
2017-Oct-13 10:30N 49°12' W 123°02'2 4.9
2017-Oct-13 10:00N 49°12' W 123°05'2 4.7
2017-Oct-13 09:30N 49°12' W 123°09'3 5.9
2017-Oct-13 09:00N 49°13' W 123°13'3 6.5
2017-Oct-13 08:30N 49°16' W 123°17'3 5.7
2017-Oct-13 08:00N 49°15' W 123°21'0 1.0
2017-Oct-13 07:30N 49°15' W 123°22'0 0.8
2017-Oct-13 07:00N 49°15' W 123°22'1 1.8
2017-Oct-13 06:30N 49°15' W 123°21'1 2.8
2017-Oct-13 06:00N 49°15' W 123°23'1 2.0
2017-Oct-13 05:30N 49°15' W 123°22'2 3.4
2017-Oct-13 05:00N 49°16' W 123°19'2 4.9
2017-Oct-13 04:30N 49°15' W 123°16'2 5.0
2017-Oct-13 04:00N 49°13' W 123°13'3 5.3
2017-Oct-13 03:30N 49°12' W 123°09'3 5.1
2017-Oct-13 03:00N 49°12' W 123°05'3 5.5
2017-Oct-13 02:30N 49°12' W 123°01'2 4.7
2017-Oct-13 02:00N 49°12' W 122°57'2 4.7
2017-Oct-13 01:30N 49°12' W 122°54'3 5.9
2017-Oct-13 01:00N 49°13' W 122°50'3 6.4
2017-Oct-13 00:30N 49°13' W 122°45'3 5.1
2017-Oct-12 23:59N 49°11' W 122°42'1 1.7
2017-Oct-12 23:30N 49°11' W 122°41'0 0.0
2017-Oct-12 23:00N 49°11' W 122°41'0 0.0
2017-Oct-12 22:30N 49°11' W 122°41'0 0.0
2017-Oct-12 21:59N 49°11' W 122°41'0 0.0
2017-Oct-12 21:31N 49°11' W 122°41'0 0.0
2017-Oct-12 21:00N 49°11' W 122°41'0 0.0
2017-Oct-12 20:30N 49°11' W 122°41'0 0.0
2017-Oct-12 20:00N 49°11' W 122°41'0 0.0
2017-Oct-12 19:30N 49°11' W 122°41'0 0.0
2017-Oct-12 19:00N 49°11' W 122°41'0 0.0
2017-Oct-12 18:30N 49°11' W 122°41'0 0.0
2017-Oct-12 18:00N 49°11' W 122°41'0 0.0
2017-Oct-12 17:30N 49°11' W 122°41'0 0.3
2017-Oct-12 17:00N 49°11' W 122°41'2 3.5
2017-Oct-12 16:30N 49°12' W 122°39'3 6.4
2017-Oct-12 16:00N 49°11' W 122°34'0 0.0
2017-Oct-12 15:28N 49°11' W 122°34'0 1.0
2017-Oct-12 15:00N 49°11' W 122°35'3 5.1
2017-Oct-12 14:30N 49°12' W 122°38'2 4.3
2017-Oct-12 14:00N 49°11' W 122°41'0 0.1
2017-Oct-12 13:31N 49°11' W 122°41'1 2.8
2017-Oct-12 13:00N 49°11' W 122°43'3 5.3
2017-Oct-12 12:30N 49°13' W 122°46'3 5.2
2017-Oct-12 12:00N 49°13' W 122°50'2 4.8
2017-Oct-12 11:30N 49°13' W 122°53'2 3.8
2017-Oct-12 10:54N 49°12' W 122°57'2 5.1
2017-Oct-12 10:30N 49°11' W 122°60'3 5.7
2017-Oct-12 10:00N 49°12' W 123°04'3 5.5
2017-Oct-12 09:30N 49°12' W 123°08'2 4.6
2017-Oct-12 09:00N 49°13' W 123°11'3 5.1
2017-Oct-12 08:30N 49°14' W 123°14'3 5.3
2017-Oct-12 08:00N 49°16' W 123°18'2 4.6
2017-Oct-12 07:30N 49°16' W 123°21'1 2.1
2017-Oct-12 07:00N 49°15' W 123°22'1 1.9
2017-Oct-12 06:30N 49°16' W 123°22'1 1.6
2017-Oct-12 06:00N 49°15' W 123°22'1 2.0
2017-Oct-12 05:30N 49°16' W 123°22'1 1.6
2017-Oct-12 05:00N 49°15' W 123°23'0 0.7
2017-Oct-12 04:30N 49°15' W 123°22'2 4.1
2017-Oct-12 04:00N 49°16' W 123°19'3 5.0
2017-Oct-12 03:30N 49°15' W 123°15'3 5.3
2017-Oct-12 03:00N 49°13' W 123°12'3 5.4
2017-Oct-12 02:31N 49°12' W 123°08'3 5.4
2017-Oct-12 02:01N 49°12' W 123°04'3 5.2
2017-Oct-12 01:30N 49°12' W 123°00'2 4.4
2017-Oct-12 01:00N 49°12' W 122°57'2 4.3
2017-Oct-12 00:30N 49°12' W 122°54'3 6.2
2017-Oct-12 00:00N 49°13' W 122°49'3 6.4
2017-Oct-11 23:30N 49°13' W 122°44'2 4.8
2017-Oct-11 23:00N 49°11' W 122°42'1 1.4
2017-Oct-11 22:30N 49°11' W 122°41'0 0.2
2017-Oct-11 22:00N 49°11' W 122°41'0 0.2
2017-Oct-11 21:30N 49°11' W 122°41'0 0.0
2017-Oct-11 21:00N 49°11' W 122°41'0 0.0
2017-Oct-11 20:30N 49°11' W 122°41'0 0.0
2017-Oct-11 20:00N 49°11' W 122°41'0 0.1
2017-Oct-11 19:30N 49°11' W 122°41'0 0.0
2017-Oct-11 19:00N 49°11' W 122°41'0 0.0
2017-Oct-11 18:30N 49°11' W 122°41'0 0.0
2017-Oct-11 18:01N 49°11' W 122°41'0 0.2
2017-Oct-11 17:30N 49°11' W 122°41'0 0.2
2017-Oct-11 17:01N 49°11' W 122°41'15 0.9
2017-Oct-11 00:00N 49°12' W 123°04'0 0.0
2017-Oct-10 23:30N 49°12' W 123°04'0 0.0
2017-Oct-10 23:00N 49°12' W 123°04'  
Track history (hours):
 
Tides and Currents Weather Stations Pressure Air Temp Water Temp Dewpoint Dewpoint Depression Visibility Wind Speed Wind Dir Waves Ship Positions

Sea Imp Xi

Last reported at 2017-Oct-20 18:00 UTC. Time now 2017-Oct-20 18:28 UTC.
Position N 49°44' W 124°23'.

Length 16 m; draft 3.6 m.

Type: Tug. MMSI: 316034963.

Date/timePositionNaut miles runAvg speedWind from/ knotsBaromVisibWave heightAir tempDewpointWater temp
2017-Oct-20 18:00N 49°44' W 124°23'4 7.7
2017-Oct-20 17:31N 49°46' W 124°27'4 7.8
2017-Oct-20 17:00N 49°49' W 124°32'4 7.1
2017-Oct-20 16:30N 49°52' W 124°33'0 0.5
2017-Oct-20 16:00N 49°52' W 124°33'0 0.5
2017-Oct-20 15:30N 49°52' W 124°34'0 0.5
2017-Oct-20 15:00N 49°52' W 124°33'1 0.6
2017-Oct-20 14:00N 49°52' W 124°34'1 1.3
2017-Oct-20 13:30N 49°52' W 124°33'1 2.8
2017-Oct-20 13:00N 49°51' W 124°33'3 5.1
2017-Oct-20 12:30N 49°48' W 124°33'3 5.1
2017-Oct-20 12:00N 49°47' W 124°30'3 6.3
2017-Oct-20 11:31N 49°45' W 124°25'3 6.0
2017-Oct-20 11:00N 49°44' W 124°21'3 5.7
2017-Oct-20 10:31N 49°42' W 124°18'3 6.1
2017-Oct-20 10:00N 49°39' W 124°16'3 6.2
2017-Oct-20 09:30N 49°37' W 124°12'3 6.1
2017-Oct-20 09:00N 49°35' W 124°09'3 6.0
2017-Oct-20 08:30N 49°32' W 124°06'3 6.8
2017-Oct-20 08:01N 49°30' W 124°03'4 8.4
2017-Oct-20 07:31N 49°27' W 123°58'4 8.6
2017-Oct-20 07:00N 49°24' W 123°53'4 9.0
2017-Oct-20 06:31N 49°22' W 123°46'4 8.5
2017-Oct-20 06:00N 49°21' W 123°40'4 8.5
2017-Oct-20 05:30N 49°20' W 123°34'4 9.0
2017-Oct-20 05:00N 49°18' W 123°28'4 8.6
2017-Oct-20 04:30N 49°17' W 123°21'1 1.6
2017-Oct-20 04:00N 49°16' W 123°20'4 8.0
2017-Oct-20 03:31N 49°18' W 123°26'4 7.4
2017-Oct-20 03:01N 49°20' W 123°31'4 8.2
2017-Oct-20 02:30N 49°21' W 123°37'4 8.5
2017-Oct-20 02:00N 49°23' W 123°43'4 7.7
2017-Oct-20 01:31N 49°24' W 123°48'4 7.4
2017-Oct-20 01:00N 49°26' W 123°53'4 7.1
2017-Oct-20 00:31N 49°27' W 123°59'3 6.8
2017-Oct-20 00:00N 49°29' W 124°02'4 8.0
2017-Oct-19 23:30N 49°33' W 124°05'4 7.4
2017-Oct-19 23:00N 49°36' W 124°08'4 7.3
2017-Oct-19 22:30N 49°39' W 124°12'4 7.7
2017-Oct-19 22:00N 49°41' W 124°16'4 7.9
2017-Oct-19 21:30N 49°43' W 124°21'4 7.7
2017-Oct-19 21:01N 49°45' W 124°26'4 7.5
2017-Oct-19 20:30N 49°47' W 124°31'4 7.2
2017-Oct-19 20:00N 49°51' W 124°33'1 2.8
2017-Oct-19 19:30N 49°52' W 124°33'0 0.0
2017-Oct-19 19:00N 49°52' W 124°33'0 0.0
2017-Oct-19 18:31N 49°52' W 124°33'0 0.0
2017-Oct-19 18:00N 49°52' W 124°33'0 0.0
2017-Oct-19 17:30N 49°52' W 124°33'0 0.0
2017-Oct-19 17:00N 49°52' W 124°33'0 0.0
2017-Oct-19 16:29N 49°52' W 124°33'0 0.0
2017-Oct-19 16:01N 49°52' W 124°33'0 0.0
2017-Oct-19 15:29N 49°52' W 124°33'0 0.0
2017-Oct-19 15:00N 49°52' W 124°33'0 0.0
2017-Oct-19 14:31N 49°52' W 124°33'0 0.0
2017-Oct-19 14:00N 49°52' W 124°33'0 0.8
2017-Oct-19 13:31N 49°52' W 124°33'4 7.2
2017-Oct-19 13:00N 49°48' W 124°32'4 8.9
2017-Oct-19 12:31N 49°46' W 124°27'4 8.9
2017-Oct-19 12:01N 49°43' W 124°21'5 9.1
2017-Oct-19 11:30N 49°40' W 124°16'5 9.0
2017-Oct-19 11:01N 49°36' W 124°12'5 9.6
2017-Oct-19 10:31N 49°33' W 124°07'5 9.3
2017-Oct-19 10:00N 49°29' W 124°02'5 9.5
2017-Oct-19 09:31N 49°26' W 123°56'5 9.0
2017-Oct-19 09:00N 49°25' W 123°50'4 8.8
2017-Oct-19 08:30N 49°23' W 123°44'4 8.7
2017-Oct-19 08:00N 49°21' W 123°38'4 8.7
2017-Oct-19 07:30N 49°20' W 123°32'4 8.6
2017-Oct-19 07:00N 49°18' W 123°25'4 8.2
2017-Oct-19 06:31N 49°16' W 123°20'5 9.1
2017-Oct-19 06:00N 49°14' W 123°14'5 9.6
2017-Oct-19 05:30N 49°12' W 123°07'2 4.0
2017-Oct-19 05:00N 49°12' W 123°04'0 0.0
2017-Oct-19 04:30N 49°12' W 123°04'0 0.1
2017-Oct-19 04:00N 49°12' W 123°04'0 0.0
2017-Oct-19 03:30N 49°12' W 123°04'1 2.2
2017-Oct-19 03:00N 49°12' W 123°06'3 7.1
2017-Oct-19 02:31N 49°13' W 123°11'4 8.0
2017-Oct-19 02:00N 49°15' W 123°16'4 7.3
2017-Oct-19 01:30N 49°17' W 123°21'4 8.7
2017-Oct-19 01:00N 49°19' W 123°27'4 8.5
2017-Oct-19 00:31N 49°21' W 123°32'4 8.1
2017-Oct-19 00:00N 49°23' W 123°38'4 7.9
2017-Oct-18 23:30N 49°25' W 123°43'4 7.6
2017-Oct-18 23:01N 49°26' W 123°48'3 6.8
2017-Oct-18 22:31N 49°28' W 123°53'3 6.4
2017-Oct-18 22:01N 49°30' W 123°57'3 6.2
2017-Oct-18 21:30N 49°32' W 124°00'3 6.9
2017-Oct-18 21:00N 49°35' W 124°04'3 6.3
2017-Oct-18 20:30N 49°36' W 124°08'3 5.7
2017-Oct-18 20:01N 49°38' W 124°11'3 5.4
2017-Oct-18 19:30N 49°40' W 124°14'3 5.6
2017-Oct-18 19:00N 49°42' W 124°18'3 6.0
2017-Oct-18 18:30N 49°43' W 124°21'3 6.7
2017-Oct-18 18:01N 49°45' W 124°26'3 6.0
2017-Oct-18 17:30N 49°47' W 124°30'3 5.6
2017-Oct-18 17:00N 49°49' W 124°33'3 6.4
2017-Oct-18 16:30N 49°52' W 124°33'0 0.2
2017-Oct-18 15:54N 49°52' W 124°33'0 0.0
2017-Oct-18 14:45N 49°52' W 124°33'0 0.0
2017-Oct-18 13:39N 49°52' W 124°33'0 0.0
2017-Oct-18 13:24N 49°52' W 124°33'0 0.0
2017-Oct-18 12:57N 49°52' W 124°33'0 0.1
2017-Oct-18 12:28N 49°52' W 124°33'2 4.9
2017-Oct-18 12:00N 49°50' W 124°33'4 8.1
2017-Oct-18 11:30N 49°46' W 124°29'5 9.2
2017-Oct-18 11:00N 49°44' W 124°23'5 9.1
2017-Oct-18 10:30N 49°41' W 124°18'5 9.1
2017-Oct-18 10:00N 49°38' W 124°14'4 8.9
2017-Oct-18 09:30N 49°34' W 124°09'4 8.9
2017-Oct-18 09:00N 49°31' W 124°05'4 8.8
2017-Oct-18 08:30N 49°28' W 123°60'5 9.2
2017-Oct-18 08:00N 49°26' W 123°53'5 9.2
2017-Oct-18 07:30N 49°25' W 123°47'4 8.6
2017-Oct-18 07:00N 49°23' W 123°40'4 8.7
2017-Oct-18 06:30N 49°22' W 123°34'4 8.6
2017-Oct-18 06:00N 49°20' W 123°28'4 8.5
2017-Oct-18 05:30N 49°17' W 123°23'4 8.8
2017-Oct-18 05:00N 49°15' W 123°17'510.8
2017-Oct-18 04:30N 49°13' W 123°10'4 7.5
2017-Oct-18 04:00N 49°12' W 123°04'0 0.1
2017-Oct-18 03:30N 49°12' W 123°04'1 2.3
2017-Oct-18 03:00N 49°12' W 123°02'2 3.3
2017-Oct-18 02:30N 49°11' W 122°60'2 4.0
2017-Oct-18 01:56N 49°12' W 122°56'2 4.3
2017-Oct-18 01:30N 49°12' W 122°54'1 2.7
2017-Oct-18 01:00N 49°13' W 122°52'2 3.6
2017-Oct-18 00:30N 49°13' W 122°49'2 4.0
2017-Oct-17 23:59N 49°13' W 122°46'2 3.7
2017-Oct-17 23:30N 49°12' W 122°44'2 3.6
2017-Oct-17 23:00N 49°11' W 122°41'0 0.6
2017-Oct-17 22:28N 49°11' W 122°41'1 1.4
2017-Oct-17 22:00N 49°11' W 122°42'0 0.3
2017-Oct-17 21:30N 49°11' W 122°41'0 0.8
2017-Oct-17 20:56N 49°11' W 122°41'1 1.6
2017-Oct-17 20:18N 49°12' W 122°40'0 0.0
2017-Oct-17 20:00N 49°12' W 122°40'0 0.1
2017-Oct-17 19:24N 49°12' W 122°40'1 1.5
2017-Oct-17 18:45N 49°11' W 122°41'0 0.0
2017-Oct-17 18:27N 49°11' W 122°41'0 0.0
2017-Oct-17 18:00N 49°11' W 122°41'0 0.3
2017-Oct-17 17:30N 49°11' W 122°41'3 5.0
2017-Oct-17 17:00N 49°13' W 122°44'4 7.0
2017-Oct-17 16:29N 49°13' W 122°50'3 6.0
2017-Oct-17 15:54N 49°12' W 122°55'2 6.2
2017-Oct-17 15:30N 49°11' W 122°58'3 6.6
2017-Oct-17 15:00N 49°12' W 123°03'3 6.7
2017-Oct-17 14:30N 49°12' W 123°08'4 7.3
2017-Oct-17 14:00N 49°13' W 123°13'4 7.1
2017-Oct-17 13:30N 49°16' W 123°17'4 7.3
2017-Oct-17 13:00N 49°15' W 123°23'1 1.5
2017-Oct-17 12:26N 49°15' W 123°21'1 1.3
2017-Oct-17 11:59N 49°16' W 123°22'1 1.6
2017-Oct-17 11:29N 49°16' W 123°23'1 1.8
2017-Oct-17 10:59N 49°15' W 123°22'1 1.4
2017-Oct-17 10:29N 49°15' W 123°21'2 3.3
2017-Oct-17 10:01N 49°16' W 123°19'2 4.7
2017-Oct-17 09:30N 49°15' W 123°16'0 0.3
2017-Oct-17 09:00N 49°15' W 123°15'3 6.2
2017-Oct-17 08:30N 49°16' W 123°20'2 3.3
2017-Oct-17 07:59N 49°15' W 123°23'0 0.5
2017-Oct-17 07:28N 49°15' W 123°22'0 0.7
2017-Oct-17 07:00N 49°15' W 123°22'0 0.7
2017-Oct-17 06:28N 49°15' W 123°22'2 4.7
2017-Oct-17 06:00N 49°16' W 123°19'3 5.1
2017-Oct-17 05:30N 49°15' W 123°15'0 0.0
2017-Oct-17 05:00N 49°15' W 123°15'1 1.0
2017-Oct-17 04:30N 49°14' W 123°15'2 4.9
2017-Oct-17 04:00N 49°13' W 123°11'3 5.4
2017-Oct-17 03:31N 49°12' W 123°08'3 5.0
2017-Oct-17 03:00N 49°12' W 123°04'3 5.2
2017-Oct-17 02:30N 49°12' W 123°00'2 3.9
2017-Oct-17 01:59N 49°12' W 122°57'2 3.1
2017-Oct-17 01:30N 49°12' W 122°55'1 2.9
2017-Oct-17 01:00N 49°13' W 122°53'2 3.4
2017-Oct-17 00:30N 49°13' W 122°51'2 3.2
2017-Oct-17 00:00N 49°13' W 122°48'2 3.2
2017-Oct-16 23:30N 49°13' W 122°46'2 3.4
2017-Oct-16 22:59N 49°12' W 122°44'2 3.1
2017-Oct-16 22:29N 49°11' W 122°42'1 1.3
2017-Oct-16 22:00N 49°11' W 122°41'0 0.1
2017-Oct-16 21:30N 49°11' W 122°41'0 0.1
2017-Oct-16 21:00N 49°11' W 122°41'0 0.0
2017-Oct-16 20:30N 49°11' W 122°41'0 0.0
2017-Oct-16 20:00N 49°11' W 122°41'0 0.0
2017-Oct-16 19:30N 49°11' W 122°41'0 0.0
2017-Oct-16 19:00N 49°11' W 122°41'0 0.0
2017-Oct-16 18:30N 49°11' W 122°41'0 0.0
2017-Oct-16 18:00N 49°11' W 122°41'0 0.0
2017-Oct-16 17:30N 49°11' W 122°41'0 0.4
2017-Oct-16 17:00N 49°11' W 122°41'0 0.4
2017-Oct-16 16:30N 49°11' W 122°41'0 0.0
2017-Oct-16 15:17N 49°11' W 122°41'0 0.0
2017-Oct-16 15:00N 49°11' W 122°41'0 0.0
2017-Oct-16 13:42N 49°11' W 122°41'0 0.0
2017-Oct-16 13:15N 49°11' W 122°41'0 0.0
2017-Oct-16 13:00N 49°11' W 122°41'2 3.0
2017-Oct-16 12:30N 49°11' W 122°43'2 4.4
2017-Oct-16 12:00N 49°13' W 122°45'3 5.9
2017-Oct-16 11:30N 49°13' W 122°50'3 6.1
2017-Oct-16 11:00N 49°12' W 122°54'3 6.1
2017-Oct-16 10:30N 49°11' W 122°58'3 6.5
2017-Oct-16 10:00N 49°12' W 123°03'3 6.3
2017-Oct-16 09:30N 49°12' W 123°08'3 5.5
2017-Oct-16 09:00N 49°13' W 123°11'3 5.9
2017-Oct-16 08:30N 49°15' W 123°15'2 4.2
2017-Oct-16 08:00N 49°16' W 123°18'2 4.5
2017-Oct-16 07:30N 49°15' W 123°22'1 2.0
2017-Oct-16 07:00N 49°16' W 123°22'1 1.2
2017-Oct-16 06:30N 49°15' W 123°23'1 1.8
2017-Oct-16 06:00N 49°15' W 123°21'1 2.1
2017-Oct-16 05:30N 49°16' W 123°23'1 1.2
2017-Oct-16 05:00N 49°15' W 123°22'2 3.4
2017-Oct-16 04:30N 49°15' W 123°19'3 5.5
2017-Oct-16 04:00N 49°15' W 123°15'3 6.2
2017-Oct-16 03:30N 49°13' W 123°11'3 5.8
2017-Oct-16 03:00N 49°12' W 123°07'3 6.2
2017-Oct-16 02:30N 49°12' W 123°02'3 5.4
2017-Oct-16 02:00N 49°11' W 122°58'2 4.4
2017-Oct-16 01:31N 49°12' W 122°55'2 4.0
2017-Oct-16 01:00N 49°13' W 122°53'1 2.9
2017-Oct-16 00:30N 49°13' W 122°50'2 3.1
2017-Oct-16 00:00N 49°13' W 122°48'1 3.0
2017-Oct-15 23:30N 49°13' W 122°46'2 3.0
2017-Oct-15 23:00N 49°12' W 122°44'2 3.1
2017-Oct-15 22:29N 49°11' W 122°42'1 1.9
2017-Oct-15 22:00N 49°11' W 122°41'0 0.1
2017-Oct-15 21:30N 49°11' W 122°41'0 0.0
2017-Oct-15 21:00N 49°11' W 122°41'0 0.0
2017-Oct-15 20:30N 49°11' W 122°41'1 1.2
2017-Oct-15 19:54N 49°11' W 122°42'1 1.4
2017-Oct-15 19:23N 49°11' W 122°41'0 0.0
2017-Oct-15 18:59N 49°11' W 122°41'0 0.0
2017-Oct-15 18:29N 49°11' W 122°41'0 0.0
2017-Oct-15 17:56N 49°11' W 122°41'0 0.8
2017-Oct-15 17:30N 49°11' W 122°41'0 0.1
2017-Oct-15 14:51N 49°11' W 122°41'3 3.1
2017-Oct-15 14:00N 49°13' W 122°44'2 5.0
2017-Oct-15 13:31N 49°13' W 122°48'2 4.6
2017-Oct-15 13:00N 49°13' W 122°51'3 5.2
2017-Oct-15 12:29N 49°12' W 122°55'3 5.3
2017-Oct-15 12:01N 49°11' W 122°59'3 5.9
2017-Oct-15 11:30N 49°12' W 123°03'3 6.0
2017-Oct-15 11:00N 49°12' W 123°07'3 5.3
2017-Oct-15 10:31N 49°13' W 123°11'3 6.5
2017-Oct-15 10:01N 49°15' W 123°15'2 4.5
2017-Oct-15 09:31N 49°15' W 123°18'3 5.3
2017-Oct-15 08:58N 49°15' W 123°23'1 1.8
2017-Oct-15 08:30N 49°16' W 123°22'1 1.8
2017-Oct-15 08:00N 49°15' W 123°22'1 1.4
2017-Oct-15 07:30N 49°15' W 123°22'1 1.9
2017-Oct-15 06:58N 49°16' W 123°21'1 1.4
2017-Oct-15 06:30N 49°16' W 123°22'1 1.3
2017-Oct-15 06:01N 49°15' W 123°23'1 1.9
2017-Oct-15 05:30N 49°15' W 123°22'2 4.9
2017-Oct-15 05:00N 49°16' W 123°18'2 4.9
2017-Oct-15 04:30N 49°14' W 123°15'2 4.4
2017-Oct-15 04:00N 49°13' W 123°12'2 4.7
2017-Oct-15 03:30N 49°12' W 123°09'3 5.0
2017-Oct-15 03:00N 49°12' W 123°05'3 5.5
2017-Oct-15 02:30N 49°12' W 123°01'2 4.6
2017-Oct-15 02:00N 49°12' W 122°57'2 4.3
2017-Oct-15 01:30N 49°12' W 122°54'2 4.9
2017-Oct-15 01:00N 49°13' W 122°50'2 4.4
2017-Oct-15 00:30N 49°13' W 122°47'2 4.3
2017-Oct-15 00:00N 49°13' W 122°44'2 3.9
2017-Oct-14 23:30N 49°11' W 122°42'1 2.1
2017-Oct-14 23:00N 49°11' W 122°41'1 1.6
2017-Oct-14 22:30N 49°11' W 122°42'1 1.5
2017-Oct-14 22:00N 49°11' W 122°41'0 0.0
2017-Oct-14 21:30N 49°11' W 122°41'0 0.0
2017-Oct-14 21:00N 49°11' W 122°41'0 0.0
2017-Oct-14 20:31N 49°11' W 122°41'0 0.0
2017-Oct-14 20:00N 49°11' W 122°41'0 0.0
2017-Oct-14 19:30N 49°11' W 122°41'0 0.0
2017-Oct-14 19:00N 49°11' W 122°41'0 0.0
2017-Oct-14 18:30N 49°11' W 122°41'0 0.1
2017-Oct-14 18:00N 49°11' W 122°41'0 0.4
2017-Oct-14 17:30N 49°11' W 122°41'0 0.2
2017-Oct-14 17:00N 49°11' W 122°41'0 0.0
2017-Oct-14 16:30N 49°11' W 122°41'0 0.0
2017-Oct-14 16:00N 49°11' W 122°41'0 0.0
2017-Oct-14 15:30N 49°11' W 122°41'1 2.1
2017-Oct-14 15:00N 49°11' W 122°42'2 4.8
2017-Oct-14 14:30N 49°13' W 122°45'2 4.8
2017-Oct-14 14:00N 49°13' W 122°48'2 4.4
2017-Oct-14 13:30N 49°13' W 122°52'2 4.7
2017-Oct-14 12:59N 49°12' W 122°55'3 5.7
2017-Oct-14 12:30N 49°11' W 122°59'3 5.8
2017-Oct-14 12:00N 49°12' W 123°03'3 5.4
2017-Oct-14 11:30N 49°12' W 123°07'2 4.4
2017-Oct-14 11:00N 49°13' W 123°10'3 5.1
2017-Oct-14 10:30N 49°14' W 123°13'3 5.4
2017-Oct-14 10:00N 49°15' W 123°17'2 4.9
2017-Oct-14 09:31N 49°16' W 123°20'1 2.1
2017-Oct-14 09:00N 49°15' W 123°22'0 0.5
2017-Oct-14 08:30N 49°16' W 123°22'0 0.6
2017-Oct-14 08:00N 49°15' W 123°22'1 1.4
2017-Oct-14 07:30N 49°16' W 123°23'1 1.9
2017-Oct-14 07:00N 49°15' W 123°22'0 0.8
2017-Oct-14 06:30N 49°15' W 123°22'1 1.4
2017-Oct-14 06:00N 49°16' W 123°23'0 0.7
2017-Oct-14 05:30N 49°15' W 123°24'1 2.3
2017-Oct-14 05:01N 49°15' W 123°22'3 5.1
2017-Oct-14 04:30N 49°16' W 123°18'3 5.4
2017-Oct-14 04:00N 49°14' W 123°14'3 5.4
2017-Oct-14 03:30N 49°13' W 123°11'3 5.0
2017-Oct-14 03:00N 49°12' W 123°07'3 5.8
2017-Oct-14 02:30N 49°12' W 123°03'3 5.7
2017-Oct-14 02:00N 49°11' W 122°59'2 4.5
2017-Oct-14 01:28N 49°12' W 122°55'3 4.7
2017-Oct-14 00:52N 49°13' W 122°52'3 5.5
2017-Oct-14 00:19N 49°13' W 122°47'2 5.4
2017-Oct-13 23:59N 49°13' W 122°44'3 4.4
2017-Oct-13 23:24N 49°11' W 122°41'1 1.6
2017-Oct-13 23:01N 49°11' W 122°41'0 0.9
2017-Oct-13 22:30N 49°11' W 122°41'0 0.8
2017-Oct-13 21:59N 49°11' W 122°41'0 0.0
2017-Oct-13 21:16N 49°11' W 122°41'0 0.0
2017-Oct-13 21:00N 49°11' W 122°41'0 0.0
2017-Oct-13 20:30N 49°11' W 122°41'0 0.0
2017-Oct-13 20:00N 49°11' W 122°41'0 0.8
2017-Oct-13 19:30N 49°11' W 122°41'0 0.8
2017-Oct-13 19:00N 49°11' W 122°41'0 0.1
2017-Oct-13 18:30N 49°11' W 122°41'0 0.0
2017-Oct-13 18:00N 49°11' W 122°41'0 0.3
2017-Oct-13 17:31N 49°11' W 122°41'0 0.4
2017-Oct-13 17:00N 49°11' W 122°41'0 0.4
2017-Oct-13 16:30N 49°11' W 122°41'0 0.0
2017-Oct-13 15:57N 49°11' W 122°41'0 0.1
2017-Oct-13 15:30N 49°11' W 122°41'0 0.1
2017-Oct-13 15:00N 49°11' W 122°41'0 0.1
2017-Oct-13 14:30N 49°11' W 122°41'1 1.8
2017-Oct-13 14:00N 49°11' W 122°42'2 3.8
2017-Oct-13 13:31N 49°13' W 122°44'2 3.8
2017-Oct-13 13:00N 49°13' W 122°47'2 4.0
2017-Oct-13 12:30N 49°13' W 122°50'2 3.9
2017-Oct-13 12:00N 49°13' W 122°53'2 4.5
2017-Oct-13 11:30N 49°12' W 122°56'2 3.9
2017-Oct-13 11:00N 49°11' W 122°58'2 4.8
2017-Oct-13 10:30N 49°12' W 123°02'2 4.9
2017-Oct-13 10:00N 49°12' W 123°05'2 4.7
2017-Oct-13 09:30N 49°12' W 123°09'3 5.9
2017-Oct-13 09:00N 49°13' W 123°13'3 6.5
2017-Oct-13 08:30N 49°16' W 123°17'3 5.7
2017-Oct-13 08:00N 49°15' W 123°21'0 1.0
2017-Oct-13 07:30N 49°15' W 123°22'0 0.8
2017-Oct-13 07:00N 49°15' W 123°22'1 1.8
2017-Oct-13 06:30N 49°15' W 123°21'1 2.8
2017-Oct-13 06:00N 49°15' W 123°23'1 2.0
2017-Oct-13 05:30N 49°15' W 123°22'2 3.4
2017-Oct-13 05:00N 49°16' W 123°19'2 4.9
2017-Oct-13 04:30N 49°15' W 123°16'2 5.0
2017-Oct-13 04:00N 49°13' W 123°13'3 5.3
2017-Oct-13 03:30N 49°12' W 123°09'3 5.1
2017-Oct-13 03:00N 49°12' W 123°05'3 5.5
2017-Oct-13 02:30N 49°12' W 123°01'2 4.7
2017-Oct-13 02:00N 49°12' W 122°57'2 4.7
2017-Oct-13 01:30N 49°12' W 122°54'3 5.9
2017-Oct-13 01:00N 49°13' W 122°50'3 6.4
2017-Oct-13 00:30N 49°13' W 122°45'3 5.1
2017-Oct-12 23:59N 49°11' W 122°42'1 1.7
2017-Oct-12 23:30N 49°11' W 122°41'0 0.0
2017-Oct-12 23:00N 49°11' W 122°41'0 0.0
2017-Oct-12 22:30N 49°11' W 122°41'0 0.0
2017-Oct-12 21:59N 49°11' W 122°41'0 0.0
2017-Oct-12 21:31N 49°11' W 122°41'0 0.0
2017-Oct-12 21:00N 49°11' W 122°41'0 0.0
2017-Oct-12 20:30N 49°11' W 122°41'0 0.0
2017-Oct-12 20:00N 49°11' W 122°41'0 0.0
2017-Oct-12 19:30N 49°11' W 122°41'0 0.0
2017-Oct-12 19:00N 49°11' W 122°41'0 0.0
2017-Oct-12 18:30N 49°11' W 122°41'0 0.0
2017-Oct-12 18:00N 49°11' W 122°41'0 0.0
2017-Oct-12 17:30N 49°11' W 122°41'0 0.3
2017-Oct-12 17:00N 49°11' W 122°41'2 3.5
2017-Oct-12 16:30N 49°12' W 122°39'3 6.4
2017-Oct-12 16:00N 49°11' W 122°34'0 0.0
2017-Oct-12 15:28N 49°11' W 122°34'0 1.0
2017-Oct-12 15:00N 49°11' W 122°35'3 5.1
2017-Oct-12 14:30N 49°12' W 122°38'2 4.3
2017-Oct-12 14:00N 49°11' W 122°41'0 0.1
2017-Oct-12 13:31N 49°11' W 122°41'1 2.8
2017-Oct-12 13:00N 49°11' W 122°43'3 5.3
2017-Oct-12 12:30N 49°13' W 122°46'3 5.2
2017-Oct-12 12:00N 49°13' W 122°50'2 4.8
2017-Oct-12 11:30N 49°13' W 122°53'2 3.8
2017-Oct-12 10:54N 49°12' W 122°57'2 5.1
2017-Oct-12 10:30N 49°11' W 122°60'3 5.7
2017-Oct-12 10:00N 49°12' W 123°04'3 5.5
2017-Oct-12 09:30N 49°12' W 123°08'2 4.6
2017-Oct-12 09:00N 49°13' W 123°11'3 5.1
2017-Oct-12 08:30N 49°14' W 123°14'3 5.3
2017-Oct-12 08:00N 49°16' W 123°18'2 4.6
2017-Oct-12 07:30N 49°16' W 123°21'1 2.1
2017-Oct-12 07:00N 49°15' W 123°22'1 1.9
2017-Oct-12 06:30N 49°16' W 123°22'1 1.6
2017-Oct-12 06:00N 49°15' W 123°22'1 2.0
2017-Oct-12 05:30N 49°16' W 123°22'1 1.6
2017-Oct-12 05:00N 49°15' W 123°23'0 0.7
2017-Oct-12 04:30N 49°15' W 123°22'2 4.1
2017-Oct-12 04:00N 49°16' W 123°19'3 5.0
2017-Oct-12 03:30N 49°15' W 123°15'3 5.3
2017-Oct-12 03:00N 49°13' W 123°12'3 5.4
2017-Oct-12 02:31N 49°12' W 123°08'3 5.4
2017-Oct-12 02:01N 49°12' W 123°04'3 5.2
2017-Oct-12 01:30N 49°12' W 123°00'2 4.4
2017-Oct-12 01:00N 49°12' W 122°57'2 4.3
2017-Oct-12 00:30N 49°12' W 122°54'3 6.2
2017-Oct-12 00:00N 49°13' W 122°49'3 6.4
2017-Oct-11 23:30N 49°13' W 122°44'2 4.8
2017-Oct-11 23:00N 49°11' W 122°42'1 1.4
2017-Oct-11 22:30N 49°11' W 122°41'0 0.2
2017-Oct-11 22:00N 49°11' W 122°41'0 0.2
2017-Oct-11 21:30N 49°11' W 122°41'0 0.0
2017-Oct-11 21:00N 49°11' W 122°41'0 0.0
2017-Oct-11 20:30N 49°11' W 122°41'0 0.0
2017-Oct-11 20:00N 49°11' W 122°41'0 0.1
2017-Oct-11 19:30N 49°11' W 122°41'0 0.0
2017-Oct-11 19:00N 49°11' W 122°41'0 0.0
2017-Oct-11 18:30N 49°11' W 122°41'0 0.0
2017-Oct-11 18:01N 49°11' W 122°41'0 0.2
2017-Oct-11 17:30N 49°11' W 122°41'0 0.2
2017-Oct-11 17:01N 49°11' W 122°41'15 0.9
2017-Oct-11 00:00N 49°12' W 123°04'0 0.0
2017-Oct-10 23:30N 49°12' W 123°04'0 0.0
2017-Oct-10 23:00N 49°12' W 123°04'  

Dump ship's entire track history